createdAt,value
2023-08-03T00:01:01.525Z,16.37
2023-08-03T00:03:29.529Z,16.35
2023-08-03T00:05:57.393Z,16.33
2023-08-03T00:08:25.158Z,16.33
2023-08-03T00:10:52.910Z,16.32
2023-08-03T00:13:20.668Z,16.30
2023-08-03T00:15:48.510Z,16.32
2023-08-03T00:18:17.622Z,16.32
2023-08-03T00:20:47.849Z,16.33
2023-08-03T00:23:15.631Z,16.34
2023-08-03T00:25:43.393Z,16.36
2023-08-03T00:28:11.280Z,16.38
2023-08-03T00:30:39.048Z,16.38
2023-08-03T00:33:06.836Z,16.39
2023-08-03T00:35:36.024Z,16.39
2023-08-03T00:38:03.791Z,16.39
2023-08-03T00:40:31.715Z,16.38
2023-08-03T00:42:59.945Z,16.38
2023-08-03T00:45:27.798Z,16.37
2023-08-03T00:47:55.616Z,16.37
2023-08-03T00:50:23.927Z,16.35
2023-08-03T00:52:53.028Z,16.34
2023-08-03T00:55:20.811Z,16.32
2023-08-03T00:57:48.639Z,16.34
2023-08-03T01:00:16.756Z,16.31
2023-08-03T01:03:12.890Z,16.30
2023-08-03T01:05:41.575Z,16.30
2023-08-03T01:09:01.902Z,16.28
2023-08-03T01:11:55.346Z,16.24
2023-08-03T01:14:28.991Z,16.21
2023-08-03T01:16:57.011Z,16.25
2023-08-03T01:19:25.569Z,16.20
2023-08-03T01:21:53.954Z,16.24
2023-08-03T01:27:52.546Z,16.21
2023-08-03T01:30:38.005Z,16.15
2023-08-03T01:33:09.370Z,16.12
2023-08-03T01:35:40.430Z,16.13
2023-08-03T01:38:11.421Z,16.10
2023-08-03T01:40:40.706Z,16.06
2023-08-03T01:43:34.238Z,15.99
2023-08-03T01:46:06.346Z,16.00
2023-08-03T01:48:34.196Z,15.99
2023-08-03T01:51:02.163Z,15.96
2023-08-03T01:53:30.375Z,15.93
2023-08-03T01:55:59.485Z,15.93
2023-08-03T01:58:27.168Z,15.89
2023-08-03T02:00:54.795Z,15.88
2023-08-03T02:03:22.468Z,15.87
2023-08-03T02:05:50.220Z,15.87
2023-08-03T02:08:17.997Z,15.87
2023-08-03T02:10:45.822Z,15.86
2023-08-03T02:13:14.855Z,15.86
2023-08-03T02:15:42.621Z,15.86
2023-08-03T02:18:10.326Z,15.84
2023-08-03T02:20:38.036Z,15.83
2023-08-03T02:23:05.997Z,15.83
2023-08-03T02:25:33.660Z,15.84
2023-08-03T02:28:01.694Z,15.82
2023-08-03T02:30:32.043Z,15.84
2023-08-03T02:33:00.017Z,15.83
2023-08-03T02:35:28.205Z,15.85
2023-08-03T02:37:56.584Z,15.86
2023-08-03T02:40:24.867Z,15.85
2023-08-03T02:42:52.678Z,15.87
2023-08-03T02:45:21.055Z,15.88
2023-08-03T02:47:51.123Z,15.91
2023-08-03T02:50:22.015Z,15.91
2023-08-03T02:52:52.998Z,15.92
2023-08-03T02:55:20.908Z,15.93
2023-08-03T02:57:49.588Z,15.97
2023-08-03T03:00:17.920Z,15.98
2023-08-03T03:02:45.904Z,15.97
2023-08-03T03:05:16.798Z,16.00
2023-08-03T03:07:47.776Z,16.02
2023-08-03T03:10:16.382Z,16.02
2023-08-03T03:12:45.054Z,16.02
2023-08-03T03:15:13.152Z,16.01
2023-08-03T03:17:43.750Z,16.02
2023-08-03T03:20:13.035Z,16.02
2023-08-03T03:22:43.605Z,16.03
2023-08-03T03:25:11.619Z,16.03
2023-08-03T03:27:39.323Z,16.03
2023-08-03T03:30:09.670Z,16.01
2023-08-03T03:32:37.457Z,16.02
2023-08-03T03:35:06.604Z,16.03
2023-08-03T03:37:34.970Z,16.05
2023-08-03T03:40:04.985Z,16.06
2023-08-03T03:42:39.046Z,16.08
2023-08-03T03:45:07.990Z,16.07
2023-08-03T03:47:36.259Z,16.07
2023-08-03T03:50:04.545Z,16.08
2023-08-03T03:52:34.076Z,16.09
2023-08-03T03:55:01.801Z,16.11
2023-08-03T03:57:30.834Z,16.09
2023-08-03T03:59:58.557Z,16.07
2023-08-03T04:02:26.917Z,16.06
2023-08-03T04:04:57.130Z,16.05
2023-08-03T04:07:25.038Z,16.04
2023-08-03T04:09:52.675Z,16.02
2023-08-03T04:12:20.308Z,16.00
2023-08-03T04:14:49.281Z,16.00
2023-08-03T04:17:16.960Z,16.01
2023-08-03T04:19:44.619Z,16.00
2023-08-03T04:22:15.322Z,16.00
2023-08-03T04:24:43.003Z,16.01
2023-08-03T04:27:10.863Z,16.02
2023-08-03T04:29:40.532Z,16.03
2023-08-03T04:32:10.139Z,16.04
2023-08-03T04:34:38.499Z,16.04
2023-08-03T04:37:09.490Z,16.06
2023-08-03T04:39:38.708Z,16.07
2023-08-03T04:42:07.019Z,16.08
2023-08-03T04:44:36.826Z,16.10
2023-08-03T04:47:05.334Z,16.11
2023-08-03T04:49:34.340Z,16.13
2023-08-03T04:52:06.304Z,16.15
2023-08-03T04:54:34.559Z,16.18
2023-08-03T04:57:02.221Z,16.21
2023-08-03T04:59:34.930Z,16.24
2023-08-03T05:02:02.664Z,16.27
2023-08-03T05:04:30.760Z,16.31
2023-08-03T05:07:00.551Z,16.34
2023-08-03T05:09:28.529Z,16.38
2023-08-03T05:11:56.257Z,16.40
2023-08-03T05:14:24.540Z,16.45
2023-08-03T05:16:52.201Z,16.47
2023-08-03T05:19:19.870Z,16.50
2023-08-03T05:21:47.682Z,16.51
2023-08-03T05:24:16.784Z,16.57
2023-08-03T05:26:44.620Z,16.60
2023-08-03T05:29:12.229Z,16.67
2023-08-03T05:31:39.865Z,16.69
2023-08-03T05:34:07.576Z,16.75
2023-08-03T05:36:35.234Z,16.81
2023-08-03T05:39:02.963Z,16.83
2023-08-03T05:41:32.021Z,16.88
2023-08-03T05:43:59.926Z,16.90
2023-08-03T05:46:33.365Z,16.90
2023-08-03T05:49:01.160Z,16.92
2023-08-03T05:51:30.238Z,16.94
2023-08-03T05:53:58.547Z,16.95
2023-08-03T05:56:26.419Z,16.98
2023-08-03T05:58:55.938Z,16.99
2023-08-03T06:01:25.458Z,16.99
2023-08-03T06:03:54.901Z,16.99
2023-08-03T06:06:24.184Z,16.99
2023-08-03T06:08:54.065Z,17.04
2023-08-03T06:13:54.008Z,17.08
2023-08-03T06:16:24.891Z,17.12
2023-08-03T06:18:54.647Z,17.14
2023-08-03T06:21:24.444Z,17.17
2023-08-03T06:23:54.122Z,17.18
2023-08-03T06:26:26.117Z,17.20
2023-08-03T06:28:55.885Z,17.21
2023-08-03T06:31:32.508Z,17.18
2023-08-03T06:34:00.534Z,17.20
2023-08-03T06:36:29.469Z,17.27
2023-08-03T06:38:58.223Z,17.36
2023-08-03T06:41:27.370Z,17.48
2023-08-03T06:43:55.638Z,17.57
2023-08-03T06:46:23.578Z,17.71
2023-08-03T06:48:53.624Z,17.81
2023-08-03T06:51:22.087Z,17.91
2023-08-03T06:53:50.627Z,18.04
2023-08-03T06:56:18.953Z,18.15
2023-08-03T06:58:46.913Z,18.25
2023-08-03T07:01:14.827Z,18.32
2023-08-03T07:03:42.798Z,18.38
2023-08-03T07:06:11.882Z,18.38
2023-08-03T07:08:39.873Z,18.41
2023-08-03T07:11:07.564Z,18.47
2023-08-03T07:13:35.273Z,18.50
2023-08-03T07:16:08.221Z,18.61
2023-08-03T07:18:36.011Z,18.69
2023-08-03T07:21:07.410Z,18.80
2023-08-03T07:23:36.453Z,18.88
2023-08-03T07:26:04.184Z,18.95
2023-08-03T07:28:31.878Z,18.97
2023-08-03T07:30:59.563Z,19.02
2023-08-03T07:33:27.800Z,19.08
2023-08-03T07:35:55.574Z,19.17
2023-08-03T07:38:23.393Z,19.21
2023-08-03T07:40:52.477Z,19.27
2023-08-03T07:43:20.164Z,19.33
2023-08-03T07:48:18.384Z,19.42
2023-08-03T07:50:46.058Z,19.47
2023-08-03T07:53:14.050Z,19.57
2023-08-03T07:55:41.718Z,19.62
2023-08-03T07:58:10.698Z,19.69
2023-08-03T08:00:38.480Z,19.76
2023-08-03T08:03:06.421Z,19.83
2023-08-03T08:05:34.107Z,19.88
2023-08-03T08:08:01.837Z,19.85
2023-08-03T08:10:29.553Z,19.86
2023-08-03T08:12:57.564Z,19.89
2023-08-03T08:15:26.719Z,20.05
2023-08-03T08:17:55.836Z,20.08
2023-08-03T08:20:23.530Z,20.13
2023-08-03T08:22:51.254Z,20.17
2023-08-03T08:25:19.047Z,20.31
2023-08-03T08:27:47.009Z,20.41
2023-08-03T08:30:14.730Z,20.44
2023-08-03T08:32:43.804Z,20.49
2023-08-03T08:35:11.444Z,20.52
2023-08-03T08:37:39.095Z,20.52
2023-08-03T08:40:11.494Z,20.46
2023-08-03T08:42:40.155Z,20.51
2023-08-03T08:45:10.474Z,20.62
2023-08-03T08:47:39.913Z,20.66
2023-08-03T08:55:18.223Z,20.69
2023-08-03T09:00:43.161Z,20.52
2023-08-03T09:03:10.992Z,20.55
2023-08-03T09:08:15.140Z,20.83
2023-08-03T09:10:53.050Z,21.04
2023-08-03T09:13:28.581Z,21.10
2023-08-03T09:15:56.738Z,21.06
2023-08-03T09:18:26.576Z,20.93
2023-08-03T09:26:13.576Z,20.66
2023-08-03T09:28:43.127Z,20.79
2023-08-03T09:31:28.805Z,20.83
2023-08-03T09:33:58.734Z,20.92
2023-08-03T09:39:31.153Z,20.85
2023-08-03T09:41:59.832Z,20.86
2023-08-03T09:44:29.135Z,20.95
2023-08-03T09:46:57.145Z,21.03
2023-08-03T09:49:26.117Z,21.09
2023-08-03T09:54:32.226Z,21.60
2023-08-03T09:59:38.718Z,21.75
2023-08-03T10:02:10.461Z,21.84
2023-08-03T10:04:43.333Z,21.98
2023-08-03T10:07:16.704Z,22.04
2023-08-03T10:09:48.926Z,22.21
2023-08-03T10:12:20.557Z,22.42
2023-08-03T10:14:52.089Z,22.62
2023-08-03T10:17:21.157Z,22.74
2023-08-03T10:19:50.085Z,22.86
2023-08-03T10:22:19.212Z,22.88
2023-08-03T10:25:19.342Z,22.94
2023-08-03T10:28:12.533Z,23.10
2023-08-03T10:31:12.339Z,23.02
2023-08-03T10:34:15.877Z,22.95
2023-08-03T10:36:50.701Z,22.90
2023-08-03T10:40:01.416Z,22.85
2023-08-03T10:42:33.659Z,22.82
2023-08-03T10:45:28.200Z,22.75
2023-08-03T10:48:23.533Z,22.78
2023-08-03T10:51:03.478Z,22.64
2023-08-03T10:53:31.595Z,22.53
2023-08-03T10:56:07.449Z,22.44
2023-08-03T10:58:44.875Z,22.30
2023-08-03T11:01:15.865Z,22.12
2023-08-03T11:03:43.784Z,22.04
2023-08-03T11:06:13.052Z,21.94
2023-08-03T11:08:51.052Z,21.76
2023-08-03T11:11:23.442Z,21.69
2023-08-03T11:13:52.146Z,21.62
2023-08-03T11:16:20.548Z,21.50
2023-08-03T11:18:48.761Z,21.42
2023-08-03T11:21:36.278Z,21.25
2023-08-03T11:24:54.683Z,21.00
2023-08-03T11:27:23.519Z,20.85
2023-08-03T11:29:53.038Z,20.78
2023-08-03T11:32:23.414Z,20.72
2023-08-03T11:34:51.224Z,20.77
2023-08-03T11:37:21.451Z,20.95
2023-08-03T11:39:50.375Z,21.07
2023-08-03T11:42:18.181Z,21.09
2023-08-03T11:44:55.790Z,21.07
2023-08-03T11:47:24.821Z,21.00
2023-08-03T11:53:32.901Z,20.94
2023-08-03T11:56:00.734Z,20.92
2023-08-03T11:58:28.090Z,21.00
2023-08-03T12:01:00.242Z,21.16
2023-08-03T12:03:33.018Z,21.19
2023-08-03T12:06:09.101Z,21.10
2023-08-03T12:08:46.583Z,21.11
2023-08-03T12:11:18.322Z,21.13
2023-08-03T12:13:46.908Z,21.07
2023-08-03T12:16:16.505Z,21.10
2023-08-03T12:18:44.203Z,21.18
2023-08-03T12:21:11.863Z,21.21
2023-08-03T12:23:39.746Z,21.14
2023-08-03T12:26:09.051Z,21.08
2023-08-03T12:28:36.843Z,21.07
2023-08-03T12:31:04.665Z,21.08
2023-08-03T12:33:32.507Z,21.19
2023-08-03T12:36:00.372Z,21.32
2023-08-03T12:38:28.495Z,21.41
2023-08-03T12:40:56.199Z,21.57
2023-08-03T12:43:25.308Z,21.77
2023-08-03T12:45:53.406Z,21.89
2023-08-03T12:48:21.236Z,21.89
2023-08-03T12:50:49.175Z,21.78
2023-08-03T12:53:19.578Z,21.67
2023-08-03T12:55:47.590Z,21.63
2023-08-03T12:58:15.312Z,21.63
2023-08-03T13:00:45.954Z,21.60
2023-08-03T13:03:14.148Z,21.57
2023-08-03T13:05:44.967Z,21.55
2023-08-03T13:08:13.962Z,21.50
2023-08-03T13:10:42.168Z,21.41
2023-08-03T13:13:09.925Z,21.36
2023-08-03T13:15:37.622Z,21.32
2023-08-03T13:18:06.874Z,21.19
2023-08-03T13:20:39.737Z,21.12
2023-08-03T13:23:08.140Z,21.00
2023-08-03T13:25:35.897Z,21.04
2023-08-03T13:28:06.504Z,21.01
2023-08-03T13:30:34.944Z,20.98
2023-08-03T13:33:02.754Z,21.11
2023-08-03T13:35:31.882Z,21.43
2023-08-03T13:37:59.767Z,21.76
2023-08-03T13:40:27.535Z,22.03
2023-08-03T13:42:55.217Z,22.30
2023-08-03T13:45:23.067Z,22.53
2023-08-03T13:47:50.823Z,22.72
2023-08-03T13:50:18.907Z,22.79
2023-08-03T13:52:48.266Z,22.87
2023-08-03T13:55:15.942Z,23.08
2023-08-03T13:57:44.189Z,23.21
2023-08-03T14:00:12.787Z,23.35
2023-08-03T14:05:11.801Z,23.58
2023-08-03T14:22:47.450Z,24.36
2023-08-03T14:27:52.706Z,24.54
2023-08-03T14:30:21.560Z,24.62
2023-08-03T14:32:49.554Z,24.66
2023-08-03T14:37:49.381Z,24.44
2023-08-03T14:40:18.666Z,24.22
2023-08-03T14:42:55.212Z,24.02
2023-08-03T14:45:28.636Z,23.80
2023-08-03T14:48:05.970Z,23.69
2023-08-03T14:50:37.166Z,23.58
2023-08-03T14:53:05.160Z,23.45
2023-08-03T14:55:34.699Z,23.35
2023-08-03T14:58:03.071Z,23.31
2023-08-03T15:00:30.824Z,23.26
2023-08-03T15:02:58.701Z,23.18
2023-08-03T15:05:26.669Z,23.08
2023-08-03T15:07:54.478Z,22.96
2023-08-03T15:10:22.238Z,22.84
2023-08-03T15:12:56.512Z,22.74
2023-08-03T15:15:31.010Z,22.63
2023-08-03T15:17:59.802Z,22.50
2023-08-03T15:20:35.982Z,22.35
2023-08-03T15:23:06.412Z,22.16
2023-08-03T15:25:36.487Z,22.00
2023-08-03T15:28:10.988Z,21.87
2023-08-03T15:35:44.266Z,21.52
2023-08-03T15:38:18.035Z,21.47
2023-08-03T15:40:58.553Z,21.43
2023-08-03T15:43:37.415Z,21.43
2023-08-03T15:46:15.943Z,21.47
2023-08-03T15:51:18.778Z,21.36
2023-08-03T15:53:56.868Z,21.28
2023-08-03T15:56:30.656Z,21.24
2023-08-03T15:58:59.741Z,21.17
2023-08-03T16:01:27.691Z,21.08
2023-08-03T16:03:55.395Z,21.02
2023-08-03T16:06:24.247Z,21.00
2023-08-03T16:08:51.932Z,20.97
2023-08-03T16:11:30.053Z,20.93
2023-08-03T16:14:09.001Z,20.85
2023-08-03T16:16:36.764Z,20.77
2023-08-03T16:19:04.449Z,20.68
2023-08-03T16:21:32.432Z,20.53
2023-08-03T16:24:00.243Z,20.42
2023-08-03T16:26:27.908Z,20.35
2023-08-03T16:28:55.610Z,20.35
2023-08-03T16:31:26.567Z,20.36
2023-08-03T16:34:11.493Z,20.41
2023-08-03T16:36:40.201Z,20.44
2023-08-03T16:39:08.188Z,20.44
2023-08-03T16:41:37.518Z,20.46
2023-08-03T16:44:05.580Z,20.41
2023-08-03T16:46:34.683Z,20.39
2023-08-03T16:49:02.465Z,20.32
2023-08-03T16:51:30.793Z,20.26
2023-08-03T16:53:58.577Z,20.24
2023-08-03T16:56:26.338Z,20.20
2023-08-03T16:58:54.339Z,20.17
2023-08-03T17:01:22.078Z,20.13
2023-08-03T17:03:51.750Z,20.08
2023-08-03T17:06:19.705Z,20.03
2023-08-03T17:08:47.425Z,19.97
2023-08-03T17:11:15.576Z,19.92
2023-08-03T17:13:43.665Z,19.86
2023-08-03T17:16:11.611Z,19.83
2023-08-03T17:18:40.464Z,19.80
2023-08-03T17:21:09.642Z,19.77
2023-08-03T17:23:37.393Z,19.72
2023-08-03T17:26:05.162Z,19.68
2023-08-03T17:28:32.967Z,19.65
2023-08-03T17:31:04.874Z,19.61
2023-08-03T17:33:33.088Z,19.58
2023-08-03T17:36:00.898Z,19.54
2023-08-03T17:38:29.988Z,19.51
2023-08-03T17:40:57.784Z,19.47
2023-08-03T17:43:27.111Z,19.42
2023-08-03T17:45:55.001Z,19.38
2023-08-03T17:48:24.981Z,19.36
2023-08-03T17:50:52.957Z,19.31
2023-08-03T17:53:22.535Z,19.28
2023-08-03T17:55:51.918Z,19.22
2023-08-03T17:58:20.124Z,19.19
2023-08-03T18:00:47.977Z,19.14
2023-08-03T18:03:16.085Z,19.10
2023-08-03T18:05:44.305Z,19.08
2023-08-03T18:08:12.780Z,19.03
2023-08-03T18:10:41.445Z,18.98
2023-08-03T18:13:10.645Z,18.93
2023-08-03T18:15:38.864Z,18.89
2023-08-03T18:18:06.785Z,18.85
2023-08-03T18:20:38.041Z,18.82
2023-08-03T18:23:06.109Z,18.79
2023-08-03T18:25:33.899Z,18.77
2023-08-03T18:28:01.901Z,18.73
2023-08-03T18:30:31.200Z,18.69
2023-08-03T18:32:59.137Z,18.66
2023-08-03T18:35:28.261Z,18.62
2023-08-03T18:37:57.282Z,18.58
2023-08-03T18:40:25.244Z,18.54
2023-08-03T18:42:53.046Z,18.50
2023-08-03T18:45:20.898Z,18.47
2023-08-03T18:47:50.105Z,18.45
2023-08-03T18:50:18.441Z,18.41
2023-08-03T18:52:46.708Z,18.38
2023-08-03T18:55:14.653Z,18.34
2023-08-03T18:57:42.455Z,18.29
2023-08-03T19:00:11.717Z,18.25
2023-08-03T19:02:39.535Z,18.23
2023-08-03T19:05:09.343Z,18.20
2023-08-03T19:07:37.135Z,18.17
2023-08-03T19:10:05.678Z,18.13
2023-08-03T19:12:33.451Z,18.09
2023-08-03T19:15:01.330Z,18.05
2023-08-03T19:17:29.197Z,18.02
2023-08-03T19:19:57.046Z,17.97
2023-08-03T19:22:26.153Z,17.94
2023-08-03T19:24:53.964Z,17.91
2023-08-03T19:27:21.828Z,17.86
2023-08-03T19:29:49.711Z,17.83
2023-08-03T19:32:17.526Z,17.82
2023-08-03T19:34:45.314Z,17.77
2023-08-03T19:37:13.144Z,17.73
2023-08-03T19:39:42.330Z,17.71
2023-08-03T19:42:10.539Z,17.69
2023-08-03T19:44:38.380Z,17.67
2023-08-03T19:47:07.034Z,17.63
2023-08-03T19:57:09.073Z,17.51
2023-08-03T19:59:36.939Z,17.49
2023-08-03T20:09:38.490Z,17.31
2023-08-03T20:12:08.737Z,17.27
2023-08-03T20:14:37.505Z,17.21
2023-08-03T20:19:39.716Z,17.11
2023-08-03T20:22:08.457Z,17.06
2023-08-03T20:24:38.455Z,17.01
2023-08-03T20:27:08.608Z,16.97
2023-08-03T20:32:08.616Z,16.87
2023-08-03T20:37:18.445Z,16.80
2023-08-03T20:40:00.671Z,16.76
2023-08-03T20:45:02.025Z,16.76
2023-08-03T20:50:57.720Z,16.76
2023-08-03T20:52:48.558Z,16.75
2023-08-03T20:55:16.572Z,16.75
2023-08-03T20:57:45.821Z,16.74
2023-08-03T21:00:14.617Z,16.73
2023-08-03T21:02:42.469Z,16.71
2023-08-03T21:05:10.903Z,16.70
2023-08-03T21:07:39.015Z,16.69
2023-08-03T21:12:39.065Z,16.69
2023-08-03T21:15:09.732Z,16.69
2023-08-03T21:17:37.588Z,16.69
2023-08-03T21:20:07.053Z,16.71
2023-08-03T21:22:34.985Z,16.71
2023-08-03T21:25:02.891Z,16.71
2023-08-03T21:27:31.763Z,16.74
2023-08-03T21:30:04.727Z,16.73
2023-08-03T21:32:35.680Z,16.75
2023-08-03T21:35:03.907Z,16.76
2023-08-03T21:40:00.893Z,16.79
2023-08-03T21:42:28.908Z,16.80
2023-08-03T21:44:57.169Z,16.80
2023-08-03T21:47:25.176Z,16.79
2023-08-03T21:49:55.999Z,16.79
2023-08-03T21:52:24.218Z,16.80
2023-08-03T21:54:52.178Z,16.78
2023-08-03T21:57:20.283Z,16.77
2023-08-03T21:59:48.052Z,16.76
2023-08-03T22:02:15.866Z,16.76
2023-08-03T22:04:43.896Z,16.76
2023-08-03T22:07:13.091Z,16.75
2023-08-03T22:09:40.909Z,16.73
2023-08-03T22:12:09.700Z,16.71
2023-08-03T22:14:37.547Z,16.70
2023-08-03T22:17:06.217Z,16.68
2023-08-03T22:19:34.180Z,16.67
2023-08-03T22:22:02.204Z,16.65
2023-08-03T22:24:31.346Z,16.63
2023-08-03T22:26:59.186Z,16.62
2023-08-03T22:29:27.076Z,16.63
2023-08-03T22:31:54.870Z,16.61
2023-08-03T22:34:22.691Z,16.60
2023-08-03T22:36:52.349Z,16.59
2023-08-03T22:39:20.101Z,16.59
2023-08-03T22:41:49.544Z,16.58
2023-08-03T22:44:17.464Z,16.60
2023-08-03T22:46:45.455Z,16.61
2023-08-03T22:49:13.330Z,16.61
2023-08-03T22:51:41.208Z,16.62
2023-08-03T22:54:08.990Z,16.63
2023-08-03T22:56:36.804Z,16.64
2023-08-03T22:59:05.976Z,16.63
2023-08-03T23:01:33.833Z,16.64
2023-08-03T23:04:01.683Z,16.67
2023-08-03T23:06:29.961Z,16.68
2023-08-03T23:08:58.063Z,16.70
2023-08-03T23:11:26.231Z,16.71
2023-08-03T23:13:54.072Z,16.73
2023-08-03T23:16:23.290Z,16.75
2023-08-03T23:18:53.142Z,16.76
2023-08-03T23:21:20.994Z,16.77
2023-08-03T23:23:49.168Z,16.78
2023-08-03T23:26:17.367Z,16.79
2023-08-03T23:28:46.199Z,16.80
2023-08-03T23:31:14.529Z,16.81
2023-08-03T23:33:43.681Z,16.82
2023-08-03T23:36:11.534Z,16.84
2023-08-03T23:38:39.260Z,16.83
2023-08-03T23:41:07.013Z,16.82
2023-08-03T23:43:34.772Z,16.85
2023-08-03T23:46:02.542Z,16.85
2023-08-03T23:48:30.808Z,16.84
2023-08-03T23:50:59.992Z,16.87
2023-08-03T23:53:27.747Z,16.88
2023-08-03T23:55:55.488Z,16.88
2023-08-03T23:58:23.209Z,16.89
